sensor_id;sensor_type;location;lat;lon;timestamp;pressure;altitude;pressure_sealevel;temperature;humidity
7614;BME280;3848;42.016;23.098;2022-08-19T00:01:18;96830.78;;;22.11;100.00
7614;BME280;3848;42.016;23.098;2022-08-19T00:03:45;96837.13;;;22.05;100.00
7614;BME280;3848;42.016;23.098;2022-08-19T00:06:12;96845.22;;;21.99;100.00
7614;BME280;3848;42.016;23.098;2022-08-19T00:08:40;96842.59;;;21.85;100.00
7614;BME280;3848;42.016;23.098;2022-08-19T00:11:09;96861.94;;;21.94;100.00
7614;BME280;3848;42.016;23.098;2022-08-19T00:13:36;96864.53;;;21.94;100.00
7614;BME280;3848;42.016;23.098;2022-08-19T00:16:04;96859.25;;;21.95;100.00
7614;BME280;3848;42.016;23.098;2022-08-19T00:18:31;96847.72;;;22.01;100.00
7614;BME280;3848;42.016;23.098;2022-08-19T00:20:59;96844.72;;;22.08;100.00
7614;BME280;3848;42.016;23.098;2022-08-19T00:23:26;96815.50;;;22.06;100.00
7614;BME280;3848;42.016;23.098;2022-08-19T00:25:55;96816.31;;;22.07;100.00
7614;BME280;3848;42.016;23.098;2022-08-19T00:28:22;96816.84;;;21.98;100.00
7614;BME280;3848;42.016;23.098;2022-08-19T00:30:48;96828.88;;;21.99;100.00
7614;BME280;3848;42.016;23.098;2022-08-19T00:33:17;96827.56;;;21.91;100.00
7614;BME280;3848;42.016;23.098;2022-08-19T00:35:44;96837.91;;;21.91;100.00
7614;BME280;3848;42.016;23.098;2022-08-19T00:38:10;96845.94;;;21.87;100.00
7614;BME280;3848;42.016;23.098;2022-08-19T00:40:37;96838.63;;;21.79;100.00
7614;BME280;3848;42.016;23.098;2022-08-19T00:43:09;96847.66;;;21.72;100.00
7614;BME280;3848;42.016;23.098;2022-08-19T00:45:39;96829.50;;;21.58;100.00
7614;BME280;3848;42.016;23.098;2022-08-19T00:48:09;96823.97;;;21.64;100.00
7614;BME280;3848;42.016;23.098;2022-08-19T00:50:36;96831.66;;;21.66;100.00
7614;BME280;3848;42.016;23.098;2022-08-19T00:53:06;96834.16;;;21.67;100.00
7614;BME280;3848;42.016;23.098;2022-08-19T00:55:33;96833.56;;;21.62;100.00
7614;BME280;3848;42.016;23.098;2022-08-19T00:58:04;96827.84;;;21.57;100.00
7614;BME280;3848;42.016;23.098;2022-08-19T01:00:35;96830.25;;;21.60;100.00
7614;BME280;3848;42.016;23.098;2022-08-19T01:03:03;96837.44;;;21.55;100.00
7614;BME280;3848;42.016;23.098;2022-08-19T01:05:30;96838.53;;;21.51;100.00
7614;BME280;3848;42.016;23.098;2022-08-19T01:07:59;96835.94;;;21.51;100.00
7614;BME280;3848;42.016;23.098;2022-08-19T01:10:31;96830.44;;;21.41;100.00
7614;BME280;3848;42.016;23.098;2022-08-19T01:12:59;96847.72;;;21.41;100.00
7614;BME280;3848;42.016;23.098;2022-08-19T01:15:30;96832.25;;;21.23;100.00
7614;BME280;3848;42.016;23.098;2022-08-19T01:18:04;96832.34;;;21.22;100.00
7614;BME280;3848;42.016;23.098;2022-08-19T01:20:33;96833.53;;;21.16;100.00
7614;BME280;3848;42.016;23.098;2022-08-19T01:23:01;96839.78;;;21.12;100.00
7614;BME280;3848;42.016;23.098;2022-08-19T01:25:31;96839.38;;;21.04;100.00
7614;BME280;3848;42.016;23.098;2022-08-19T01:27:58;96838.13;;;20.95;100.00
7614;BME280;3848;42.016;23.098;2022-08-19T01:30:27;96837.47;;;20.92;100.00
7614;BME280;3848;42.016;23.098;2022-08-19T01:32:55;96826.63;;;20.85;100.00
7614;BME280;3848;42.016;23.098;2022-08-19T01:35:24;96840.38;;;20.86;100.00
7614;BME280;3848;42.016;23.098;2022-08-19T01:37:53;96845.72;;;20.83;100.00
7614;BME280;3848;42.016;23.098;2022-08-19T01:40:26;96848.44;;;20.80;100.00
7614;BME280;3848;42.016;23.098;2022-08-19T01:42:53;96848.50;;;20.78;100.00
7614;BME280;3848;42.016;23.098;2022-08-19T01:45:22;96857.09;;;20.79;100.00
7614;BME280;3848;42.016;23.098;2022-08-19T01:47:49;96853.59;;;20.80;100.00
7614;BME280;3848;42.016;23.098;2022-08-19T01:50:16;96860.00;;;20.73;100.00
7614;BME280;3848;42.016;23.098;2022-08-19T01:52:44;96855.19;;;20.66;100.00
7614;BME280;3848;42.016;23.098;2022-08-19T01:55:17;96858.25;;;20.73;100.00
7614;BME280;3848;42.016;23.098;2022-08-19T01:57:48;96858.50;;;20.68;100.00
7614;BME280;3848;42.016;23.098;2022-08-19T02:00:18;96850.28;;;20.62;100.00
7614;BME280;3848;42.016;23.098;2022-08-19T02:02:45;96845.69;;;20.67;100.00
7614;BME280;3848;42.016;23.098;2022-08-19T02:05:13;96849.28;;;20.64;100.00
7614;BME280;3848;42.016;23.098;2022-08-19T02:07:44;96841.16;;;20.55;100.00
7614;BME280;3848;42.016;23.098;2022-08-19T02:10:14;96840.72;;;20.47;100.00
7614;BME280;3848;42.016;23.098;2022-08-19T02:12:43;96839.75;;;20.49;100.00
7614;BME280;3848;42.016;23.098;2022-08-19T02:15:12;96814.94;;;20.29;100.00
7614;BME280;3848;42.016;23.098;2022-08-19T02:17:39;96841.09;;;20.39;100.00
7614;BME280;3848;42.016;23.098;2022-08-19T02:20:07;96850.66;;;20.37;100.00
7614;BME280;3848;42.016;23.098;2022-08-19T02:22:34;96850.81;;;20.34;100.00
7614;BME280;3848;42.016;23.098;2022-08-19T02:25:02;96854.72;;;20.25;100.00
7614;BME280;3848;42.016;23.098;2022-08-19T02:27:29;96848.50;;;20.12;100.00
7614;BME280;3848;42.016;23.098;2022-08-19T02:29:56;96859.97;;;20.06;100.00
7614;BME280;3848;42.016;23.098;2022-08-19T02:32:24;96860.22;;;20.02;100.00
7614;BME280;3848;42.016;23.098;2022-08-19T02:34:51;96854.72;;;19.91;100.00
7614;BME280;3848;42.016;23.098;2022-08-19T02:37:18;96816.44;;;19.66;100.00
7614;BME280;3848;42.016;23.098;2022-08-19T02:40:03;96865.56;;;19.97;100.00
7614;BME280;3848;42.016;23.098;2022-08-19T02:42:30;96857.63;;;20.02;100.00
7614;BME280;3848;42.016;23.098;2022-08-19T02:44:57;96867.88;;;20.03;100.00
7614;BME280;3848;42.016;23.098;2022-08-19T02:47:26;96875.75;;;20.00;100.00
7614;BME280;3848;42.016;23.098;2022-08-19T02:49:53;96864.81;;;19.95;100.00
7614;BME280;3848;42.016;23.098;2022-08-19T02:52:20;96865.72;;;19.94;100.00
7614;BME280;3848;42.016;23.098;2022-08-19T02:54:48;96865.81;;;19.93;100.00
7614;BME280;3848;42.016;23.098;2022-08-19T02:57:15;96869.22;;;19.93;100.00
7614;BME280;3848;42.016;23.098;2022-08-19T02:59:42;96867.88;;;19.86;100.00
7614;BME280;3848;42.016;23.098;2022-08-19T03:02:09;96865.53;;;19.82;100.00
7614;BME280;3848;42.016;23.098;2022-08-19T03:04:38;96859.53;;;19.81;100.00
7614;BME280;3848;42.016;23.098;2022-08-19T03:07:05;96865.53;;;19.82;100.00
7614;BME280;3848;42.016;23.098;2022-08-19T03:09:31;96847.97;;;19.71;100.00
7614;BME280;3848;42.016;23.098;2022-08-19T03:11:58;96865.13;;;19.72;100.00
7614;BME280;3848;42.016;23.098;2022-08-19T03:14:25;96877.16;;;19.71;100.00
7614;BME280;3848;42.016;23.098;2022-08-19T03:16:53;96885.00;;;19.70;100.00
7614;BME280;3848;42.016;23.098;2022-08-19T03:19:20;96883.69;;;19.61;100.00
7614;BME280;3848;42.016;23.098;2022-08-19T03:21:49;96882.88;;;19.61;100.00
7614;BME280;3848;42.016;23.098;2022-08-19T03:24:17;96884.69;;;19.59;100.00
7614;BME280;3848;42.016;23.098;2022-08-19T03:26:46;96876.25;;;19.55;100.00
7614;BME280;3848;42.016;23.098;2022-08-19T03:29:14;96873.78;;;19.52;100.00
7614;BME280;3848;42.016;23.098;2022-08-19T03:31:43;96883.91;;;19.57;100.00
7614;BME280;3848;42.016;23.098;2022-08-19T03:34:11;96885.63;;;19.56;100.00
7614;BME280;3848;42.016;23.098;2022-08-19T03:36:38;96890.03;;;19.54;100.00
7614;BME280;3848;42.016;23.098;2022-08-19T03:39:06;96889.25;;;19.52;100.00
7614;BME280;3848;42.016;23.098;2022-08-19T03:41:37;96892.59;;;19.54;100.00
7614;BME280;3848;42.016;23.098;2022-08-19T03:44:05;96863.78;;;19.46;100.00
7614;BME280;3848;42.016;23.098;2022-08-19T03:46:34;96885.75;;;19.53;100.00
7614;BME280;3848;42.016;23.098;2022-08-19T03:49:03;96887.66;;;19.49;100.00
7614;BME280;3848;42.016;23.098;2022-08-19T03:51:36;96888.56;;;19.48;100.00
7614;BME280;3848;42.016;23.098;2022-08-19T03:54:06;96889.78;;;19.41;100.00
7614;BME280;3848;42.016;23.098;2022-08-19T03:56:35;96889.69;;;19.43;100.00
7614;BME280;3848;42.016;23.098;2022-08-19T03:59:03;96891.22;;;19.47;100.00
7614;BME280;3848;42.016;23.098;2022-08-19T04:01:31;96902.50;;;19.44;100.00
7614;BME280;3848;42.016;23.098;2022-08-19T04:03:59;96898.41;;;19.40;100.00
7614;BME280;3848;42.016;23.098;2022-08-19T04:06:28;96899.44;;;19.36;100.00
7614;BME280;3848;42.016;23.098;2022-08-19T04:08:56;96899.81;;;19.29;100.00
7614;BME280;3848;42.016;23.098;2022-08-19T04:11:26;96907.53;;;19.29;100.00
7614;BME280;3848;42.016;23.098;2022-08-19T04:13:55;96912.06;;;19.24;100.00
7614;BME280;3848;42.016;23.098;2022-08-19T04:16:24;96908.66;;;19.23;100.00
7614;BME280;3848;42.016;23.098;2022-08-19T04:18:55;96905.09;;;19.26;100.00
7614;BME280;3848;42.016;23.098;2022-08-19T04:21:24;96916.31;;;19.25;100.00
7614;BME280;3848;42.016;23.098;2022-08-19T04:23:52;96908.38;;;19.29;100.00
7614;BME280;3848;42.016;23.098;2022-08-19T04:26:21;96920.25;;;19.32;100.00
7614;BME280;3848;42.016;23.098;2022-08-19T04:28:49;96919.56;;;19.28;100.00
7614;BME280;3848;42.016;23.098;2022-08-19T04:31:20;96921.59;;;19.22;100.00
7614;BME280;3848;42.016;23.098;2022-08-19T04:33:47;96917.44;;;19.19;100.00
7614;BME280;3848;42.016;23.098;2022-08-19T04:36:18;96926.84;;;19.20;100.00
7614;BME280;3848;42.016;23.098;2022-08-19T04:38:46;96927.75;;;19.19;100.00
7614;BME280;3848;42.016;23.098;2022-08-19T04:41:12;96930.94;;;19.24;100.00
7614;BME280;3848;42.016;23.098;2022-08-19T04:43:57;96929.97;;;19.27;100.00
7614;BME280;3848;42.016;23.098;2022-08-19T04:46:25;96943.31;;;19.35;100.00
7614;BME280;3848;42.016;23.098;2022-08-19T04:48:54;96938.59;;;19.44;100.00
7614;BME280;3848;42.016;23.098;2022-08-19T04:51:22;96940.94;;;19.49;100.00
7614;BME280;3848;42.016;23.098;2022-08-19T04:53:49;96939.56;;;19.61;100.00
7614;BME280;3848;42.016;23.098;2022-08-19T04:56:17;96939.06;;;19.71;100.00
7614;BME280;3848;42.016;23.098;2022-08-19T04:58:46;96920.66;;;19.79;100.00
7614;BME280;3848;42.016;23.098;2022-08-19T05:01:15;96925.28;;;19.90;100.00
7614;BME280;3848;42.016;23.098;2022-08-19T05:03:45;96936.84;;;20.00;100.00
7614;BME280;3848;42.016;23.098;2022-08-19T05:06:14;96935.53;;;20.08;100.00
7614;BME280;3848;42.016;23.098;2022-08-19T05:08:42;96936.91;;;20.16;100.00
7614;BME280;3848;42.016;23.098;2022-08-19T05:11:14;96942.72;;;20.19;100.00
7614;BME280;3848;42.016;23.098;2022-08-19T05:13:42;96944.19;;;20.25;100.00
7614;BME280;3848;42.016;23.098;2022-08-19T05:16:09;96942.91;;;20.33;100.00
7614;BME280;3848;42.016;23.098;2022-08-19T05:18:37;96938.06;;;20.45;100.00
7614;BME280;3848;42.016;23.098;2022-08-19T05:21:23;96935.78;;;20.56;100.00
7614;BME280;3848;42.016;23.098;2022-08-19T05:24:07;96913.69;;;20.50;100.00
7614;BME280;3848;42.016;23.098;2022-08-19T05:26:34;96938.47;;;20.70;100.00
7614;BME280;3848;42.016;23.098;2022-08-19T05:29:02;96938.00;;;20.79;100.00
7614;BME280;3848;42.016;23.098;2022-08-19T05:31:29;96927.38;;;20.85;100.00
7614;BME280;3848;42.016;23.098;2022-08-19T05:33:57;96920.03;;;20.93;100.00
7614;BME280;3848;42.016;23.098;2022-08-19T05:36:26;96915.06;;;21.06;100.00
7614;BME280;3848;42.016;23.098;2022-08-19T05:38:54;96918.97;;;21.13;100.00
7614;BME280;3848;42.016;23.098;2022-08-19T05:41:21;96916.06;;;21.19;100.00
7614;BME280;3848;42.016;23.098;2022-08-19T05:43:55;96920.22;;;21.22;100.00
7614;BME280;3848;42.016;23.098;2022-08-19T05:46:23;96918.28;;;21.27;100.00
7614;BME280;3848;42.016;23.098;2022-08-19T05:48:50;96924.28;;;21.27;100.00
7614;BME280;3848;42.016;23.098;2022-08-19T05:51:17;96922.72;;;21.23;100.00
7614;BME280;3848;42.016;23.098;2022-08-19T05:53:45;96916.72;;;21.23;100.00
7614;BME280;3848;42.016;23.098;2022-08-19T05:56:14;96917.28;;;21.29;100.00
7614;BME280;3848;42.016;23.098;2022-08-19T05:58:42;96908.25;;;21.37;100.00
7614;BME280;3848;42.016;23.098;2022-08-19T06:01:11;96920.53;;;21.49;100.00
7614;BME280;3848;42.016;23.098;2022-08-19T06:03:39;96921.94;;;21.54;100.00
7614;BME280;3848;42.016;23.098;2022-08-19T06:06:07;96915.75;;;21.57;100.00
7614;BME280;3848;42.016;23.098;2022-08-19T06:08:36;96922.41;;;21.61;100.00
7614;BME280;3848;42.016;23.098;2022-08-19T06:11:20;96903.22;;;21.65;100.00
7614;BME280;3848;42.016;23.098;2022-08-19T06:13:50;96923.88;;;21.81;100.00
7614;BME280;3848;42.016;23.098;2022-08-19T06:16:18;96914.63;;;21.92;100.00
7614;BME280;3848;42.016;23.098;2022-08-19T06:18:48;96917.19;;;22.08;100.00
7614;BME280;3848;42.016;23.098;2022-08-19T06:21:17;96927.66;;;22.21;100.00
7614;BME280;3848;42.016;23.098;2022-08-19T06:23:44;96932.03;;;22.35;100.00
7614;BME280;3848;42.016;23.098;2022-08-19T06:26:13;96921.41;;;22.39;100.00
7614;BME280;3848;42.016;23.098;2022-08-19T06:28:42;96924.88;;;22.54;100.00
7614;BME280;3848;42.016;23.098;2022-08-19T06:31:12;96925.69;;;22.55;100.00
7614;BME280;3848;42.016;23.098;2022-08-19T06:33:40;96918.47;;;22.60;100.00
7614;BME280;3848;42.016;23.098;2022-08-19T06:36:08;96920.59;;;22.67;100.00
7614;BME280;3848;42.016;23.098;2022-08-19T06:38:42;96921.28;;;22.71;100.00
7614;BME280;3848;42.016;23.098;2022-08-19T06:41:09;96924.22;;;22.79;100.00
7614;BME280;3848;42.016;23.098;2022-08-19T06:43:36;96921.53;;;22.80;100.00
7614;BME280;3848;42.016;23.098;2022-08-19T06:46:10;96928.22;;;22.85;100.00
7614;BME280;3848;42.016;23.098;2022-08-19T06:48:37;96924.53;;;22.89;100.00
7614;BME280;3848;42.016;23.098;2022-08-19T06:51:04;96915.91;;;23.02;100.00
7614;BME280;3848;42.016;23.098;2022-08-19T06:53:31;96917.47;;;23.19;100.00
7614;BME280;3848;42.016;23.098;2022-08-19T06:55:59;96910.88;;;23.28;100.00
7614;BME280;3848;42.016;23.098;2022-08-19T06:58:28;96921.22;;;23.42;100.00
7614;BME280;3848;42.016;23.098;2022-08-19T07:00:58;96917.09;;;23.52;100.00
7614;BME280;3848;42.016;23.098;2022-08-19T07:03:29;96916.28;;;23.66;100.00
7614;BME280;3848;42.016;23.098;2022-08-19T07:05:57;96915.28;;;23.81;100.00
7614;BME280;3848;42.016;23.098;2022-08-19T07:08:24;96919.69;;;23.93;100.00
7614;BME280;3848;42.016;23.098;2022-08-19T07:10:52;96914.72;;;24.03;100.00
7614;BME280;3848;42.016;23.098;2022-08-19T07:13:20;96888.16;;;23.99;100.00
7614;BME280;3848;42.016;23.098;2022-08-19T07:15:48;96908.47;;;24.32;100.00
7614;BME280;3848;42.016;23.098;2022-08-19T07:18:24;96912.53;;;24.49;100.00
7614;BME280;3848;42.016;23.098;2022-08-19T07:21:02;96914.31;;;24.61;100.00
7614;BME280;3848;42.016;23.098;2022-08-19T07:23:29;96909.72;;;24.78;100.00
7614;BME280;3848;42.016;23.098;2022-08-19T07:25:56;96908.06;;;24.89;99.67
7614;BME280;3848;42.016;23.098;2022-08-19T07:28:23;96903.34;;;24.94;96.41
7614;BME280;3848;42.016;23.098;2022-08-19T07:30:50;96898.97;;;24.95;93.80
7614;BME280;3848;42.016;23.098;2022-08-19T07:33:16;96901.31;;;25.00;95.80
7614;BME280;3848;42.016;23.098;2022-08-19T07:35:44;96893.09;;;25.06;92.53
7614;BME280;3848;42.016;23.098;2022-08-19T07:38:12;96901.25;;;25.25;93.43
7614;BME280;3848;42.016;23.098;2022-08-19T07:40:40;96905.69;;;25.36;90.88
7614;BME280;3848;42.016;23.098;2022-08-19T07:43:09;96901.28;;;25.49;89.65
7614;BME280;3848;42.016;23.098;2022-08-19T07:45:35;96905.50;;;25.63;83.77
7614;BME280;3848;42.016;23.098;2022-08-19T07:48:03;96893.91;;;25.43;84.78
7614;BME280;3848;42.016;23.098;2022-08-19T07:50:30;96897.78;;;25.61;89.16
7614;BME280;3848;42.016;23.098;2022-08-19T07:52:57;96896.94;;;25.61;87.36
7614;BME280;3848;42.016;23.098;2022-08-19T07:55:26;96884.63;;;25.75;83.60
7614;BME280;3848;42.016;23.098;2022-08-19T07:57:53;96895.34;;;25.95;88.05
7614;BME280;3848;42.016;23.098;2022-08-19T08:00:20;96891.75;;;26.08;80.60
7614;BME280;3848;42.016;23.098;2022-08-19T08:02:47;96887.50;;;26.19;80.94
7614;BME280;3848;42.016;23.098;2022-08-19T08:05:14;96879.03;;;26.39;79.40
7614;BME280;3848;42.016;23.098;2022-08-19T08:07:58;96879.31;;;26.58;78.43
7614;BME280;3848;42.016;23.098;2022-08-19T08:10:44;96869.84;;;26.68;73.58
7614;BME280;3848;42.016;23.098;2022-08-19T08:13:11;96873.03;;;26.83;77.61
7614;BME280;3848;42.016;23.098;2022-08-19T08:15:39;96876.47;;;27.06;82.64
7614;BME280;3848;42.016;23.098;2022-08-19T08:18:05;96867.69;;;27.29;77.23
7614;BME280;3848;42.016;23.098;2022-08-19T08:20:33;96863.47;;;27.49;75.59
7614;BME280;3848;42.016;23.098;2022-08-19T08:22:59;96863.19;;;27.75;63.51
7614;BME280;3848;42.016;23.098;2022-08-19T08:25:45;96855.41;;;27.84;62.47
7614;BME280;3848;42.016;23.098;2022-08-19T08:28:13;96860.72;;;27.94;68.28
7614;BME280;3848;42.016;23.098;2022-08-19T08:30:41;96844.13;;;28.05;63.33
7614;BME280;3848;42.016;23.098;2022-08-19T08:33:09;96846.69;;;28.16;60.92
7614;BME280;3848;42.016;23.098;2022-08-19T08:35:36;96852.69;;;28.28;60.83
7614;BME280;3848;42.016;23.098;2022-08-19T08:38:04;96845.22;;;28.44;62.32
7614;BME280;3848;42.016;23.098;2022-08-19T08:40:39;96820.94;;;28.53;58.60
7614;BME280;3848;42.016;23.098;2022-08-19T08:43:18;96839.34;;;28.82;56.96
7614;BME280;3848;42.016;23.098;2022-08-19T08:45:53;96833.78;;;29.06;60.03
7614;BME280;3848;42.016;23.098;2022-08-19T08:48:30;96825.97;;;29.35;56.42
7614;BME280;3848;42.016;23.098;2022-08-19T08:51:02;96832.38;;;29.52;55.35
7614;BME280;3848;42.016;23.098;2022-08-19T08:53:30;96782.63;;;29.52;55.70
7614;BME280;3848;42.016;23.098;2022-08-19T08:56:01;96805.34;;;29.99;56.33
7614;BME280;3848;42.016;23.098;2022-08-19T08:58:38;96814.13;;;30.27;51.20
7614;BME280;3848;42.016;23.098;2022-08-19T09:01:09;96814.44;;;30.52;54.54
7614;BME280;3848;42.016;23.098;2022-08-19T09:03:38;96814.06;;;30.84;51.16
7614;BME280;3848;42.016;23.098;2022-08-19T09:06:11;96807.25;;;31.18;50.07
7614;BME280;3848;42.016;23.098;2022-08-19T09:08:45;96811.91;;;31.42;48.77
7614;BME280;3848;42.016;23.098;2022-08-19T09:11:18;96803.00;;;31.53;47.14
7614;BME280;3848;42.016;23.098;2022-08-19T09:13:56;96799.56;;;31.88;47.29
7614;BME280;3848;42.016;23.098;2022-08-19T09:16:28;96798.59;;;32.15;47.15
7614;BME280;3848;42.016;23.098;2022-08-19T09:18:58;96797.97;;;31.77;46.10
7614;BME280;3848;42.016;23.098;2022-08-19T09:21:27;96780.53;;;31.94;46.48
7614;BME280;3848;42.016;23.098;2022-08-19T09:23:54;96781.41;;;32.55;46.63
7614;BME280;3848;42.016;23.098;2022-08-19T09:26:23;96768.53;;;32.86;45.33
7614;BME280;3848;42.016;23.098;2022-08-19T09:28:53;96773.13;;;33.34;43.42
7614;BME280;3848;42.016;23.098;2022-08-19T09:31:23;96760.78;;;33.67;42.33
7614;BME280;3848;42.016;23.098;2022-08-19T09:33:51;96762.44;;;33.92;41.59
7614;BME280;3848;42.016;23.098;2022-08-19T09:36:23;96756.91;;;34.35;41.93
7614;BME280;3848;42.016;23.098;2022-08-19T09:38:51;96755.47;;;34.71;40.70
7614;BME280;3848;42.016;23.098;2022-08-19T09:41:19;96743.47;;;35.23;41.47
7614;BME280;3848;42.016;23.098;2022-08-19T09:43:49;96744.34;;;35.61;39.73
7614;BME280;3848;42.016;23.098;2022-08-19T09:46:19;96737.41;;;35.83;39.06
7614;BME280;3848;42.016;23.098;2022-08-19T09:48:47;96736.34;;;36.21;39.88
7614;BME280;3848;42.016;23.098;2022-08-19T09:51:19;96732.72;;;36.52;37.72
7614;BME280;3848;42.016;23.098;2022-08-19T09:53:48;96717.09;;;36.57;36.97
7614;BME280;3848;42.016;23.098;2022-08-19T09:56:18;96720.44;;;36.80;37.05
7614;BME280;3848;42.016;23.098;2022-08-19T09:58:45;96714.94;;;37.18;37.79
7614;BME280;3848;42.016;23.098;2022-08-19T10:01:18;96710.03;;;37.36;37.82
7614;BME280;3848;42.016;23.098;2022-08-19T10:03:48;96701.28;;;37.64;37.26
7614;BME280;3848;42.016;23.098;2022-08-19T10:06:16;96702.09;;;37.64;35.58
7614;BME280;3848;42.016;23.098;2022-08-19T10:08:45;96695.75;;;37.59;36.08
7614;BME280;3848;42.016;23.098;2022-08-19T10:11:13;96698.03;;;37.68;35.63
7614;BME280;3848;42.016;23.098;2022-08-19T10:13:42;96700.06;;;37.66;35.64
7614;BME280;3848;42.016;23.098;2022-08-19T10:16:11;96687.19;;;37.63;35.89
7614;BME280;3848;42.016;23.098;2022-08-19T10:18:41;96688.09;;;37.98;36.38
7614;BME280;3848;42.016;23.098;2022-08-19T10:21:11;96680.44;;;38.17;35.24
7614;BME280;3848;42.016;23.098;2022-08-19T10:23:40;96688.75;;;38.48;34.32
7614;BME280;3848;42.016;23.098;2022-08-19T10:26:09;96686.84;;;38.77;33.20
7614;BME280;3848;42.016;23.098;2022-08-19T10:28:36;96680.94;;;38.75;33.63
7614;BME280;3848;42.016;23.098;2022-08-19T10:31:05;96684.44;;;38.95;34.58
7614;BME280;3848;42.016;23.098;2022-08-19T10:33:32;96668.94;;;39.31;35.15
7614;BME280;3848;42.016;23.098;2022-08-19T10:36:03;96663.44;;;39.66;33.24
7614;BME280;3848;42.016;23.098;2022-08-19T10:38:30;96657.66;;;39.89;34.10
7614;BME280;3848;42.016;23.098;2022-08-19T10:40:57;96654.16;;;40.08;33.03
7614;BME280;3848;42.016;23.098;2022-08-19T10:43:24;96654.13;;;40.15;32.42
7614;BME280;3848;42.016;23.098;2022-08-19T10:45:54;96664.38;;;40.18;31.42
7614;BME280;3848;42.016;23.098;2022-08-19T10:48:24;96652.16;;;39.77;31.63
7614;BME280;3848;42.016;23.098;2022-08-19T10:50:51;96651.97;;;39.72;30.14
7614;BME280;3848;42.016;23.098;2022-08-19T10:53:37;96654.22;;;39.75;30.86
7614;BME280;3848;42.016;23.098;2022-08-19T10:56:04;96640.66;;;40.10;30.73
7614;BME280;3848;42.016;23.098;2022-08-19T10:58:48;96654.09;;;40.28;30.58
7614;BME280;3848;42.016;23.098;2022-08-19T11:01:15;96644.50;;;40.14;29.06
7614;BME280;3848;42.016;23.098;2022-08-19T11:03:42;96639.44;;;40.06;28.13
7614;BME280;3848;42.016;23.098;2022-08-19T11:06:10;96632.63;;;40.16;29.84
7614;BME280;3848;42.016;23.098;2022-08-19T11:08:38;96623.34;;;40.32;29.10
7614;BME280;3848;42.016;23.098;2022-08-19T11:11:07;96630.41;;;40.07;29.35
7614;BME280;3848;42.016;23.098;2022-08-19T11:13:36;96628.50;;;40.27;30.81
7614;BME280;3848;42.016;23.098;2022-08-19T11:16:05;96621.16;;;40.61;31.03
7614;BME280;3848;42.016;23.098;2022-08-19T11:18:34;96621.25;;;40.79;29.50
7614;BME280;3848;42.016;23.098;2022-08-19T11:21:06;96617.34;;;40.88;29.79
7614;BME280;3848;42.016;23.098;2022-08-19T11:23:33;96622.19;;;40.98;29.31
7614;BME280;3848;42.016;23.098;2022-08-19T11:26:01;96615.81;;;41.30;30.75
7614;BME280;3848;42.016;23.098;2022-08-19T11:28:28;96610.97;;;41.46;28.53
7614;BME280;3848;42.016;23.098;2022-08-19T11:30:55;96598.00;;;41.49;28.54
7614;BME280;3848;42.016;23.098;2022-08-19T11:33:22;96596.25;;;41.36;29.02
7614;BME280;3848;42.016;23.098;2022-08-19T11:35:51;96603.06;;;41.32;28.92
7614;BME280;3848;42.016;23.098;2022-08-19T11:38:18;96600.78;;;41.36;28.32
7614;BME280;3848;42.016;23.098;2022-08-19T11:40:45;96594.44;;;41.55;27.63
7614;BME280;3848;42.016;23.098;2022-08-19T11:43:21;96580.22;;;41.80;29.24
7614;BME280;3848;42.016;23.098;2022-08-19T11:45:48;96574.78;;;42.05;27.74
7614;BME280;3848;42.016;23.098;2022-08-19T11:48:15;96566.41;;;42.19;28.09
7614;BME280;3848;42.016;23.098;2022-08-19T11:50:47;96545.59;;;42.10;27.67
7614;BME280;3848;42.016;23.098;2022-08-19T11:53:14;96565.13;;;42.10;28.35
7614;BME280;3848;42.016;23.098;2022-08-19T11:55:41;96561.84;;;42.08;28.28
7614;BME280;3848;42.016;23.098;2022-08-19T11:58:10;96557.94;;;42.22;28.21
7614;BME280;3848;42.016;23.098;2022-08-19T12:00:39;96557.81;;;42.17;28.02
7614;BME280;3848;42.016;23.098;2022-08-19T12:03:06;96556.88;;;42.12;27.10
7614;BME280;3848;42.016;23.098;2022-08-19T12:05:33;96536.53;;;42.11;26.95
7614;BME280;3848;42.016;23.098;2022-08-19T12:08:05;96552.09;;;42.44;27.38
7614;BME280;3848;42.016;23.098;2022-08-19T12:10:32;96547.88;;;42.54;27.48
7614;BME280;3848;42.016;23.098;2022-08-19T12:13:00;96543.13;;;42.68;27.54
7614;BME280;3848;42.016;23.098;2022-08-19T12:15:27;96537.41;;;42.95;27.43
7614;BME280;3848;42.016;23.098;2022-08-19T12:17:56;96534.94;;;43.05;26.67
7614;BME280;3848;42.016;23.098;2022-08-19T12:20:24;96526.13;;;43.16;25.70
7614;BME280;3848;42.016;23.098;2022-08-19T12:22:51;96526.56;;;43.25;26.40
7614;BME280;3848;42.016;23.098;2022-08-19T12:25:18;96522.63;;;43.15;26.23
7614;BME280;3848;42.016;23.098;2022-08-19T12:27:46;96520.31;;;42.96;26.33
7614;BME280;3848;42.016;23.098;2022-08-19T12:30:15;96519.25;;;42.97;26.02
7614;BME280;3848;42.016;23.098;2022-08-19T12:32:42;96519.03;;;42.98;26.24
7614;BME280;3848;42.016;23.098;2022-08-19T12:35:10;96504.19;;;42.84;26.39
7614;BME280;3848;42.016;23.098;2022-08-19T12:37:38;96505.16;;;42.89;26.14
7614;BME280;3848;42.016;23.098;2022-08-19T12:40:10;96514.47;;;42.99;26.45
7614;BME280;3848;42.016;23.098;2022-08-19T12:42:38;96508.41;;;42.80;26.40
7614;BME280;3848;42.016;23.098;2022-08-19T12:45:12;96506.47;;;42.99;25.70
7614;BME280;3848;42.016;23.098;2022-08-19T12:47:39;96495.25;;;42.78;25.58
7614;BME280;3848;42.016;23.098;2022-08-19T12:50:07;96501.88;;;42.87;27.68
7614;BME280;3848;42.016;23.098;2022-08-19T12:52:36;96506.59;;;42.92;26.62
7614;BME280;3848;42.016;23.098;2022-08-19T12:55:05;96502.84;;;43.05;26.08
7614;BME280;3848;42.016;23.098;2022-08-19T12:57:32;96493.75;;;42.82;24.80
7614;BME280;3848;42.016;23.098;2022-08-19T13:00:05;96494.72;;;43.00;25.38
7614;BME280;3848;42.016;23.098;2022-08-19T13:02:36;96492.63;;;42.90;25.73
7614;BME280;3848;42.016;23.098;2022-08-19T13:05:04;96486.22;;;43.14;25.20
7614;BME280;3848;42.016;23.098;2022-08-19T13:07:32;96475.84;;;43.30;25.64
7614;BME280;3848;42.016;23.098;2022-08-19T13:10:01;96480.72;;;43.56;25.85
7614;BME280;3848;42.016;23.098;2022-08-19T13:12:27;96481.03;;;43.60;25.63
7614;BME280;3848;42.016;23.098;2022-08-19T13:14:55;96481.53;;;43.57;25.44